Time;durP1;ratioP1;P1;durP2;ratioP2;P2;SDS_P1;SDS_P2;PMS_P1;PMS_P2;Temp;Humidity;BMP_temperature;BMP_pressure;BME280_temperature;BME280_humidity;BME280_pressure;Samples;Min_cycle;Max_cycle;Signal;HPM_P1;HPM_P2
2021/05/30 00:00:15;;;;;;;;;;;;;;;13.59;85.49;99029.57;1674735;85;20145;-79
2021/05/30 00:02:43;;;;;;;;;;;;;;;13.54;83.59;99034.11;1641527;86;20260;-83
2021/05/30 00:05:10;;;;;;;;;;;;;;;13.50;83.77;99025.99;1653572;85;20211;-82
2021/05/30 00:07:37;;;;;;;;;;;;;;;13.45;84.96;99024.00;1672485;85;20166;-84
2021/05/30 00:10:05;;;;;;;;;;;;;;;13.42;85.64;99017.60;1644303;86;20181;-85
2021/05/30 00:12:31;;;;;;;;;;;;;;;13.38;85.39;99023.39;1680257;85;20218;-85
2021/05/30 00:14:58;;;;;;;;;;;;;;;13.31;82.10;99011.03;1663411;85;20184;-84
2021/05/30 00:17:24;;;;;;;;;;;;;;;13.26;83.68;99022.05;1661904;85;20204;-83
2021/05/30 00:19:50;;;;;;;;;;;;;;;13.22;84.49;99010.02;1641843;86;20683;-82
2021/05/30 00:22:16;;;;;;;;;;;;;;;13.20;85.47;99009.23;1644997;86;20221;-84
2021/05/30 00:24:43;;;;;;;;;;;;;;;13.19;85.50;99013.20;1684914;85;20178;-84
2021/05/30 00:27:09;;;;;;;;;;;;;;;13.20;85.46;99014.91;1676948;84;20155;-84
2021/05/30 00:29:35;;;;;;;;;;;;;;;13.21;85.74;99010.95;1713736;83;20207;-84
2021/05/30 00:32:02;;;;;;;;;;;;;;;13.24;83.59;99010.81;1735843;82;20111;-83
2021/05/30 00:34:28;;;;;;;;;;;;;;;13.25;84.15;99002.09;1720935;83;20173;-84
2021/05/30 00:36:54;;;;;;;;;;;;;;;13.27;85.60;99000.70;1697066;85;20134;-84
2021/05/30 00:39:20;;;;;;;;;;;;;;;13.29;85.64;99002.41;1717629;83;20153;-85
2021/05/30 00:41:47;;;;;;;;;;;;;;;13.30;84.13;99005.39;1712439;84;20200;-82
2021/05/30 00:44:27;;;;;;;;;;;;;;;13.32;84.69;98994.91;1698732;83;20131;-82
2021/05/30 00:46:55;;;;;;;;;;;;;;;13.33;83.90;99001.38;1701924;83;20158;-82
2021/05/30 00:49:23;;;;;;;;;;;;;;;13.33;84.77;99001.38;1669456;84;20201;-84
2021/05/30 00:51:50;;;;;;;;;;;;;;;13.34;85.23;99007.44;1722531;83;20226;-83
2021/05/30 00:54:17;;;;;;;;;;;;;;;13.37;85.04;99012.56;1706214;83;20178;-83
2021/05/30 00:56:45;;;;;;;;;;;;;;;13.38;83.76;99016.02;1700677;83;20197;-88
2021/05/30 00:59:13;;;;;;;;;;;;;;;13.36;83.65;99015.23;1707330;84;20168;-85
2021/05/30 01:01:40;;;;;;;;;;;;;;;13.31;83.88;99011.03;1716355;84;20192;-85
2021/05/30 01:04:09;;;;;;;;;;;;;;;13.25;84.71;99015.15;1715993;83;20141;-83
2021/05/30 01:06:38;;;;;;;;;;;;;;;13.19;84.41;99004.06;1689854;84;20156;-84
2021/05/30 01:09:06;;;;;;;;;;;;;;;13.15;82.92;99013.79;1716216;83;20180;-84
2021/05/30 01:11:33;;;;;;;;;;;;;;;13.03;84.86;99028.14;1715367;84;20184;-84
2021/05/30 01:14:00;;;;;;;;;;;;;;;12.92;85.59;99028.50;1661230;85;20186;-85
2021/05/30 01:16:27;;;;;;;;;;;;;;;12.83;85.27;99027.98;1720105;83;20169;-83
2021/05/30 01:18:57;;;;;;;;;;;;;;;12.76;84.13;99026.05;1699282;84;20923;-85
2021/05/30 01:21:25;;;;;;;;;;;;;;;12.66;84.94;99033.80;1715585;84;20148;-85
2021/05/30 01:23:53;;;;;;;;;;;;;;;12.60;83.69;99037.46;1700069;82;20167;-84
2021/05/30 01:26:20;;;;;;;;;;;;;;;12.50;85.29;99038.22;1693147;84;20149;-84
2021/05/30 01:28:47;;;;;;;;;;;;;;;12.44;85.30;99043.66;1703803;84;20282;-85
2021/05/30 01:31:13;;;;;;;;;;;;;;;12.38;84.14;99038.64;1699427;83;20181;-84
2021/05/30 01:33:40;;;;;;;;;;;;;;;12.33;82.67;99038.80;1675028;84;20194;-84
2021/05/30 01:36:06;;;;;;;;;;;;;;;12.26;85.13;99041.20;1706825;84;20184;-85
2021/05/30 01:38:32;;;;;;;;;;;;;;;12.23;84.44;99030.02;1717646;83;20309;-84
2021/05/30 01:40:59;;;;;;;;;;;;;;;12.20;85.40;99031.44;1705602;84;20153;-84
2021/05/30 01:43:26;;;;;;;;;;;;;;;12.15;85.49;99023.75;1697962;84;20205;-84
2021/05/30 01:45:52;;;;;;;;;;;;;;;12.11;84.60;99024.30;1696070;84;20145;-84
2021/05/30 01:48:18;;;;;;;;;;;;;;;12.11;83.83;99031.27;1705456;81;20160;-85
2021/05/30 01:50:48;;;;;;;;;;;;;;;12.06;87.06;99038.40;1703575;84;20193;-85
2021/05/30 01:53:15;;;;;;;;;;;;;;;12.05;85.99;99032.77;1703532;84;20185;-84
2021/05/30 01:58:17;;;;;;;;;;;;;;;12.03;85.93;99039.33;1678267;82;20108;-79
2021/05/30 02:00:46;;;;;;;;;;;;;;;12.03;86.45;99034.58;1634454;86;20216;-84
2021/05/30 02:03:13;;;;;;;;;;;;;;;12.06;86.51;99035.33;1719936;81;20174;-87
2021/05/30 02:05:43;;;;;;;;;;;;;;;12.08;85.78;99028.32;1737086;81;20118;-83
2021/05/30 02:08:10;;;;;;;;;;;;;;;12.07;86.18;99034.41;1733296;81;20187;-82
2021/05/30 02:10:38;;;;;;;;;;;;;;;12.06;85.18;99035.33;1726583;83;20162;-85
2021/05/30 02:13:06;;;;;;;;;;;;;;;12.06;85.66;99039.24;1707028;81;20201;-85
2021/05/30 02:15:33;;;;;;;;;;;;;;;12.08;85.68;99033.99;1682025;82;20128;-87
2021/05/30 02:17:59;;;;;;;;;;;;;;;12.08;85.63;99033.53;1681850;82;20236;-86
2021/05/30 02:20:32;;;;;;;;;;;;;;;12.08;84.87;99031.38;1690086;82;20112;-87
2021/05/30 02:22:59;;;;;;;;;;;;;;;12.06;84.65;99039.24;1689475;84;20180;-87
2021/05/30 02:25:25;;;;;;;;;;;;;;;12.06;84.67;99049.66;1692624;84;20217;-84
2021/05/30 02:27:52;;;;;;;;;;;;;;;12.06;84.64;99054.03;1697213;84;20216;-87
2021/05/30 02:30:20;;;;;;;;;;;;;;;12.04;84.51;99057.14;1702637;84;20157;-84
2021/05/30 02:32:47;;;;;;;;;;;;;;;11.98;84.68;99052.97;1695958;84;20173;-85
2021/05/30 02:35:14;;;;;;;;;;;;;;;11.90;83.74;99057.57;1668504;84;20517;-86
2021/05/30 02:37:40;;;;;;;;;;;;;;;11.80;83.32;99062.60;1661897;87;20147;-85
2021/05/30 02:40:08;;;;;;;;;;;;;;;11.69;84.29;99061.18;1692002;84;20164;-85
2021/05/30 02:42:35;;;;;;;;;;;;;;;11.61;83.51;99055.81;1716971;84;20179;-86
2021/05/30 02:45:01;;;;;;;;;;;;;;;11.53;84.61;99057.34;1695281;84;20255;-86
2021/05/30 02:47:27;;;;;;;;;;;;;;;11.46;83.78;99063.19;1689863;82;20185;-87
2021/05/30 02:49:54;;;;;;;;;;;;;;;11.41;84.93;99062.91;1690083;83;20184;-86
2021/05/30 02:52:21;;;;;;;;;;;;;;;11.37;83.25;99078.21;1725877;80;20172;-84
2021/05/30 02:54:47;;;;;;;;;;;;;;;11.31;85.92;99068.83;1751957;80;20198;-83
2021/05/30 02:57:13;;;;;;;;;;;;;;;11.29;85.70;99070.62;1756844;81;20179;-84
2021/05/30 02:59:39;;;;;;;;;;;;;;;11.28;87.18;99069.77;1748612;81;20183;-84
2021/05/30 03:02:06;;;;;;;;;;;;;;;11.29;86.84;99066.25;1770376;81;20198;-83
2021/05/30 03:04:32;;;;;;;;;;;;;;;11.33;85.55;99068.33;1757714;81;20203;-85
2021/05/30 03:07:00;;;;;;;;;;;;;;;11.37;87.09;99076.91;1767186;81;20215;-88
2021/05/30 03:09:26;;;;;;;;;;;;;;;11.40;87.55;99070.30;1771853;79;20191;-85
2021/05/30 03:11:53;;;;;;;;;;;;;;;11.42;87.04;99077.61;1691217;80;20262;-85
2021/05/30 03:14:19;;;;;;;;;;;;;;;11.45;86.15;99084.89;1692749;80;20151;-85
2021/05/30 03:16:46;;;;;;;;;;;;;;;11.48;85.77;99080.03;1692868;81;20152;-84
2021/05/30 03:19:13;;;;;;;;;;;;;;;11.52;84.08;99079.08;1682232;82;20137;-84
2021/05/30 03:21:40;;;;;;;;;;;;;;;11.50;85.34;99072.61;1665652;85;20115;-85
2021/05/30 03:24:07;;;;;;;;;;;;;;;11.53;85.09;99074.26;1693121;85;20234;-83
2021/05/30 03:26:34;;;;;;;;;;;;;;;11.53;85.75;99085.52;1693260;82;20233;-85
2021/05/30 03:29:01;;;;;;;;;;;;;;;11.52;85.08;99086.89;1683526;85;20164;-85
2021/05/30 03:31:27;;;;;;;;;;;;;;;11.51;86.18;99088.61;1681243;83;20143;-84
2021/05/30 03:33:53;;;;;;;;;;;;;;;11.44;85.77;99095.34;1692752;83;20154;-85
2021/05/30 03:36:23;;;;;;;;;;;;;;;11.42;85.81;99094.11;1679404;85;20133;-85
2021/05/30 03:38:48;;;;;;;;;;;;;;;11.32;86.77;99090.91;1664820;86;20157;-86
2021/05/30 03:41:16;;;;;;;;;;;;;;;11.37;86.06;99084.72;1676490;85;20171;-86
2021/05/30 03:43:43;;;;;;;;;;;;;;;11.40;85.34;99084.19;1699416;84;20155;-85
2021/05/30 03:46:09;;;;;;;;;;;;;;;11.45;86.78;99082.75;1692966;85;20130;-85
2021/05/30 03:48:35;;;;;;;;;;;;;;;11.47;87.46;99091.36;1693095;85;20170;-85
2021/05/30 03:51:01;;;;;;;;;;;;;;;11.54;87.32;99087.70;1713117;84;20178;-86
2021/05/30 03:53:28;;;;;;;;;;;;;;;11.65;86.66;99083.46;1692929;85;20143;-86
2021/05/30 03:55:54;;;;;;;;;;;;;;;11.76;86.28;99089.22;1692820;82;20167;-85
2021/05/30 03:58:21;;;;;;;;;;;;;;;11.90;86.22;99093.58;1698354;84;20161;-84
2021/05/30 04:00:47;;;;;;;;;;;;;;;12.07;85.70;99106.08;1691584;84;20192;-86
2021/05/30 04:03:14;;;;;;;;;;;;;;;12.19;85.13;99102.70;1691401;84;20107;-86
2021/05/30 04:05:40;;;;;;;;;;;;;;;12.31;84.92;99098.39;1691406;85;20234;-85
2021/05/30 04:08:07;;;;;;;;;;;;;;;12.41;83.84;99105.01;1699441;84;20161;-84
2021/05/30 04:10:33;;;;;;;;;;;;;;;12.50;84.02;99102.11;1693436;84;20214;-84
2021/05/30 04:12:59;;;;;;;;;;;;;;;12.64;84.12;99108.64;1686408;85;20198;-84
2021/05/30 04:15:26;;;;;;;;;;;;;;;12.77;84.19;99106.00;1670023;85;20152;-84
2021/05/30 04:17:52;;;;;;;;;;;;;;;12.90;83.88;99104.68;1681134;85;20164;-84
2021/05/30 04:20:20;;;;;;;;;;;;;;;13.02;83.29;99115.61;1687359;85;20182;-84
2021/05/30 04:22:47;;;;;;;;;;;;;;;13.09;82.82;99120.57;1688882;84;20439;-84
2021/05/30 04:25:14;;;;;;;;;;;;;;;13.16;81.93;99130.79;1685592;84;20184;-86
2021/05/30 04:27:41;;;;;;;;;;;;;;;13.23;81.39;99124.42;1665368;86;20277;-86
2021/05/30 04:30:09;;;;;;;;;;;;;;;13.31;80.80;99130.29;1675591;85;20201;-86
2021/05/30 04:32:36;;;;;;;;;;;;;;;13.33;79.67;99130.63;1663014;86;20147;-85
2021/05/30 04:35:03;;;;;;;;;;;;;;;13.44;79.75;99132.84;1663132;86;20167;-86
2021/05/30 04:37:30;;;;;;;;;;;;;;;13.53;79.33;99138.20;1671459;85;20107;-85
2021/05/30 04:39:56;;;;;;;;;;;;;;;13.59;77.55;99134.05;1692636;85;20173;-85
2021/05/30 04:42:23;;;;;;;;;;;;;;;13.63;78.02;99130.42;1692351;85;20190;-86
2021/05/30 04:44:49;;;;;;;;;;;;;;;13.63;76.26;99135.64;1692769;85;20163;-86
2021/05/30 04:47:16;;;;;;;;;;;;;;;13.63;75.50;99129.58;1692687;85;20191;-85
2021/05/30 04:49:42;;;;;;;;;;;;;;;13.60;75.84;99126.60;1679148;85;20201;-85
2021/05/30 04:52:10;;;;;;;;;;;;;;;13.60;75.29;99125.75;1683359;85;20163;-84
2021/05/30 04:54:37;;;;;;;;;;;;;;;13.59;76.10;99136.67;1675025;85;20190;-84
2021/05/30 04:57:04;;;;;;;;;;;;;;;13.60;76.00;99146.19;1692081;85;20170;-86
2021/05/30 04:59:30;;;;;;;;;;;;;;;13.57;74.80;99141.52;1690627;85;20929;-86
2021/05/30 05:01:57;;;;;;;;;;;;;;;13.63;75.11;99136.11;1674657;85;20186;-86
2021/05/30 05:04:23;;;;;;;;;;;;;;;13.70;75.85;99132.34;1672692;85;20189;-84
2021/05/30 05:06:49;;;;;;;;;;;;;;;13.73;75.77;99140.92;1673786;85;20115;-85
2021/05/30 05:09:16;;;;;;;;;;;;;;;13.80;76.18;99134.16;1693412;84;20170;-86
2021/05/30 05:11:42;;;;;;;;;;;;;;;13.81;75.39;99133.27;1716233;84;20177;-86
2021/05/30 05:14:08;;;;;;;;;;;;;;;13.82;73.51;99121.88;1698066;85;20169;-85
2021/05/30 05:16:35;;;;;;;;;;;;;;;13.90;74.56;99127.20;1698071;85;20153;-85
2021/05/30 05:19:02;;;;;;;;;;;;;;;13.95;73.14;99117.90;1695641;85;20129;-85
2021/05/30 05:21:28;;;;;;;;;;;;;;;14.04;73.13;99127.14;1695736;84;20178;-86
2021/05/30 05:23:54;;;;;;;;;;;;;;;14.13;72.76;99121.09;1670014;85;20126;-86
2021/05/30 05:26:21;;;;;;;;;;;;;;;14.20;74.16;99124.77;1669864;86;20605;-86
2021/05/30 05:28:47;;;;;;;;;;;;;;;14.10;72.71;99125.13;1669424;86;20171;-86
2021/05/30 05:31:14;;;;;;;;;;;;;;;14.21;73.11;99128.64;1661218;86;20196;-85
2021/05/30 05:33:42;;;;;;;;;;;;;;;14.33;73.13;99129.92;1646109;86;20201;-88
2021/05/30 05:36:09;;;;;;;;;;;;;;;14.45;71.96;99133.34;1669245;86;20172;-87
2021/05/30 05:38:36;;;;;;;;;;;;;;;14.54;71.40;99129.50;1668496;86;20133;-86
2021/05/30 05:41:03;;;;;;;;;;;;;;;14.68;71.43;99139.44;1669728;86;20183;-86
2021/05/30 05:43:29;;;;;;;;;;;;;;;14.71;71.57;99136.70;1669796;86;20171;-85
2021/05/30 05:45:56;;;;;;;;;;;;;;;14.79;71.87;99139.00;1662922;86;20136;-87
2021/05/30 05:48:22;;;;;;;;;;;;;;;14.91;71.24;99156.34;1670145;86;20101;-86
2021/05/30 05:50:48;;;;;;;;;;;;;;;15.05;71.08;99153.15;1669835;86;20156;-85
2021/05/30 05:53:16;;;;;;;;;;;;;;;15.20;70.91;99161.26;1682594;85;20138;-85
2021/05/30 05:55:42;;;;;;;;;;;;;;;15.29;70.46;99161.72;1697881;85;20263;-85
2021/05/30 05:58:09;;;;;;;;;;;;;;;15.42;69.21;99163.80;1697805;84;20162;-86
2021/05/30 06:00:35;;;;;;;;;;;;;;;15.48;69.03;99163.09;1672985;85;20111;-84
2021/05/30 06:03:03;;;;;;;;;;;;;;;15.57;68.72;99164.44;1663570;86;20151;-86
2021/05/30 06:05:29;;;;;;;;;;;;;;;15.70;68.65;99163.45;1670331;86;20112;-86
2021/05/30 06:07:56;;;;;;;;;;;;;;;15.82;69.59;99152.43;1661926;86;20202;-86
2021/05/30 06:10:24;;;;;;;;;;;;;;;15.77;66.31;99159.64;1660968;87;20175;-86
2021/05/30 06:12:53;;;;;;;;;;;;;;;15.93;67.11;99165.03;1668701;86;20148;-86
2021/05/30 06:15:21;;;;;;;;;;;;;;;15.99;67.05;99164.75;1668863;85;20163;-86
2021/05/30 06:17:53;;;;;;;;;;;;;;;16.09;65.85;99162.55;1674691;84;20152;-86
2021/05/30 06:20:17;;;;;;;;;;;;;;;16.15;66.12;99157.49;1668163;82;20198;-86
2021/05/30 06:22:43;;;;;;;;;;;;;;;16.21;65.79;99154.58;1675215;86;20232;-86
2021/05/30 06:25:10;;;;;;;;;;;;;;;16.26;64.36;99154.75;1674187;86;20214;-86
2021/05/30 06:27:36;;;;;;;;;;;;;;;16.39;65.30;99158.09;1674670;86;20168;-87
2021/05/30 06:30:04;;;;;;;;;;;;;;;16.48;64.46;99156.35;1657698;85;20223;-86
2021/05/30 06:32:31;;;;;;;;;;;;;;;16.56;63.44;99158.14;1670275;86;20198;-84
2021/05/30 06:34:57;;;;;;;;;;;;;;;16.63;64.43;99154.74;1657958;86;20214;-86
2021/05/30 06:37:23;;;;;;;;;;;;;;;16.53;62.28;99164.83;1671612;86;20117;-86
2021/05/30 06:39:50;;;;;;;;;;;;;;;16.66;64.14;99155.92;1674025;86;20175;-85
2021/05/30 06:42:16;;;;;;;;;;;;;;;16.77;63.74;99163.25;1673981;86;20195;-86
2021/05/30 06:44:42;;;;;;;;;;;;;;;16.88;62.04;99168.39;1673473;86;20188;-86
2021/05/30 06:47:09;;;;;;;;;;;;;;;17.02;62.03;99172.11;1673343;84;20112;-87
2021/05/30 06:49:35;;;;;;;;;;;;;;;17.12;62.13;99166.77;1673956;86;20542;-86
2021/05/30 06:52:02;;;;;;;;;;;;;;;17.26;62.33;99168.23;1674574;86;20168;-87
2021/05/30 06:54:28;;;;;;;;;;;;;;;17.42;62.17;99166.12;1650524;86;20195;-85
2021/05/30 06:56:54;;;;;;;;;;;;;;;17.48;60.30;99176.31;1649685;87;20124;-86
2021/05/30 06:59:20;;;;;;;;;;;;;;;17.14;57.90;99166.70;1657137;86;20115;-86
2021/05/30 07:01:47;;;;;;;;;;;;;;;17.33;58.90;99174.48;1674141;86;20187;-86
2021/05/30 07:04:13;;;;;;;;;;;;;;;17.35;59.43;99168.68;1673823;86;20168;-86
2021/05/30 07:06:40;;;;;;;;;;;;;;;17.18;58.74;99170.41;1674818;86;20572;-86
2021/05/30 07:09:06;;;;;;;;;;;;;;;17.36;59.21;99172.55;1657748;86;20161;-86
2021/05/30 07:11:34;;;;;;;;;;;;;;;17.21;58.78;99178.14;1674543;85;20214;-85
2021/05/30 07:14:00;;;;;;;;;;;;;;;17.29;58.55;99174.66;1684896;85;20171;-85
2021/05/30 07:16:26;;;;;;;;;;;;;;;17.27;58.75;99176.52;1685811;85;20196;-86
2021/05/30 07:18:53;;;;;;;;;;;;;;;17.15;59.39;99173.20;1684116;85;20127;-86
2021/05/30 07:21:19;;;;;;;;;;;;;;;17.10;59.47;99176.52;1679313;85;20187;-87
2021/05/30 07:23:45;;;;;;;;;;;;;;;16.97;59.60;99170.17;1659378;85;20163;-85
2021/05/30 07:26:12;;;;;;;;;;;;;;;16.81;60.15;99171.36;1657218;86;20153;-86
2021/05/30 07:28:39;;;;;;;;;;;;;;;16.59;60.36;99167.19;1657087;86;20180;-85
2021/05/30 07:31:05;;;;;;;;;;;;;;;16.44;60.52;99174.02;1669698;85;20206;-86
2021/05/30 07:33:31;;;;;;;;;;;;;;;16.35;61.95;99167.88;1686338;84;20183;-85
2021/05/30 07:35:57;;;;;;;;;;;;;;;16.23;62.09;99164.53;1662595;85;20225;-85
2021/05/30 07:38:24;;;;;;;;;;;;;;;15.96;60.74;99166.22;1675675;85;20209;-85
2021/05/30 07:40:50;;;;;;;;;;;;;;;15.79;61.48;99163.51;1666621;85;20130;-86
2021/05/30 07:43:17;;;;;;;;;;;;;;;15.68;62.30;99166.12;1685315;85;20186;-85
2021/05/30 07:45:43;;;;;;;;;;;;;;;15.55;62.62;99164.97;1685289;85;20133;-85
2021/05/30 07:48:10;;;;;;;;;;;;;;;15.51;63.03;99159.47;1685032;85;20170;-85
2021/05/30 07:50:36;;;;;;;;;;;;;;;15.46;63.77;99162.30;1682523;85;20215;-86
2021/05/30 07:53:03;;;;;;;;;;;;;;;15.45;63.47;99158.44;1674768;85;20478;-85
2021/05/30 07:55:30;;;;;;;;;;;;;;;15.63;62.85;99162.00;1658373;85;20176;-86
2021/05/30 07:57:56;;;;;;;;;;;;;;;15.76;63.08;99156.64;1657743;87;20201;-86
2021/05/30 08:00:24;;;;;;;;;;;;;;;15.74;61.11;99158.92;1679392;85;20147;-85
2021/05/30 08:02:51;;;;;;;;;;;;;;;15.78;61.08;99151.34;1685508;85;20253;-85
2021/05/30 08:05:20;;;;;;;;;;;;;;;15.64;61.44;99161.95;1666134;85;20146;-86
2021/05/30 08:07:51;;;;;;;;;;;;;;;15.75;61.42;99154.93;1680159;85;20202;-84
2021/05/30 08:10:20;;;;;;;;;;;;;;;15.80;61.80;99154.74;1686200;84;20200;-86
2021/05/30 08:12:48;;;;;;;;;;;;;;;15.83;62.42;99158.05;1687582;84;20222;-85
2021/05/30 08:15:14;;;;;;;;;;;;;;;16.00;60.78;99150.73;1677719;85;20178;-85
2021/05/30 08:17:41;;;;;;;;;;;;;;;16.22;60.70;99153.67;1662806;86;20506;-85
2021/05/30 08:20:09;;;;;;;;;;;;;;;16.41;60.46;99149.25;1676488;84;20212;-85
2021/05/30 08:22:35;;;;;;;;;;;;;;;16.57;59.62;99144.55;1680119;84;20545;-84
2021/05/30 08:25:02;;;;;;;;;;;;;;;16.88;59.67;99142.61;1668362;85;20214;-83
2021/05/30 08:27:28;;;;;;;;;;;;;;;16.83;57.16;99141.97;1697877;84;20199;-88
2021/05/30 08:29:54;;;;;;;;;;;;;;;16.82;57.40;99142.92;1697814;84;20550;-85
2021/05/30 08:32:21;;;;;;;;;;;;;;;16.73;57.69;99141.55;1689115;84;20205;-90
2021/05/30 08:34:47;;;;;;;;;;;;;;;16.73;57.06;99141.55;1678902;85;20220;-88
2021/05/30 08:37:14;;;;;;;;;;;;;;;16.86;58.03;99140.52;1689279;84;20176;-89
2021/05/30 08:39:41;;;;;;;;;;;;;;;16.86;57.38;99141.84;1707080;84;20182;-87
2021/05/30 08:42:07;;;;;;;;;;;;;;;16.89;57.34;99136.41;1672335;85;20191;-85
2021/05/30 08:44:34;;;;;;;;;;;;;;;16.81;56.83;99143.80;1690847;85;20174;-85
2021/05/30 08:47:00;;;;;;;;;;;;;;;16.96;55.99;99140.44;1692358;82;20159;-85
2021/05/30 08:49:26;;;;;;;;;;;;;;;17.23;57.68;99138.63;1699368;84;20321;-85
2021/05/30 08:51:52;;;;;;;;;;;;;;;17.33;53.69;99142.50;1690959;85;20186;-85
2021/05/30 08:54:20;;;;;;;;;;;;;;;17.56;56.78;99136.02;1688351;85;20190;-85
2021/05/30 08:56:48;;;;;;;;;;;;;;;17.64;51.93;99146.97;1692021;85;20174;-86
2021/05/30 08:59:27;;;;;;;;;;;;;;;17.62;52.50;99146.68;1688060;85;20179;-86
2021/05/30 09:01:48;;;;;;;;;;;;;;;17.77;53.67;99151.60;1663867;85;20171;-85
2021/05/30 09:04:14;;;;;;;;;;;;;;;17.66;52.58;99153.00;1695770;84;20241;-85
2021/05/30 09:06:44;;;;;;;;;;;;;;;17.68;54.08;99148.98;1704535;84;20220;-86
2021/05/30 09:09:12;;;;;;;;;;;;;;;17.80;54.06;99144.84;1697384;84;20205;-86
2021/05/30 09:11:42;;;;;;;;;;;;;;;17.99;53.57;99142.95;1687074;84;20161;-86
2021/05/30 09:14:14;;;;;;;;;;;;;;;18.06;52.50;99144.77;1666320;85;20196;-84
2021/05/30 09:16:56;;;;;;;;;;;;;;;18.09;52.54;99134.93;1655330;87;20173;-86
2021/05/30 09:19:42;;;;;;;;;;;;;;;18.22;53.00;99138.19;1650692;87;20179;-85
2021/05/30 09:22:24;;;;;;;;;;;;;;;18.33;52.75;99131.03;1640803;86;20179;-85
2021/05/30 09:24:54;;;;;;;;;;;;;;;18.40;50.75;99124.02;1660691;86;20162;-86
2021/05/30 09:27:22;;;;;;;;;;;;;;;18.59;53.29;99126.91;1656862;87;20148;-86
2021/05/30 09:30:09;;;;;;;;;;;;;;;18.32;49.68;99127.52;1644192;87;20183;-86
2021/05/30 09:32:55;;;;;;;;;;;;;;;18.24;51.27;99132.37;1639370;87;20165;-84
2021/05/30 09:35:24;;;;;;;;;;;;;;;18.32;51.98;99117.00;1653763;87;20149;-85
2021/05/30 09:38:02;;;;;;;;;;;;;;;18.40;50.17;99117.44;1636203;87;20165;-85
2021/05/30 09:40:52;;;;;;;;;;;;;;;18.75;52.09;99117.17;1655063;87;20182;-85
2021/05/30 09:43:28;;;;;;;;;;;;;;;18.97;51.60;99130.44;1651522;87;20174;-85
2021/05/30 09:46:12;;;;;;;;;;;;;;;19.22;51.56;99114.02;1654031;87;20162;-86
2021/05/30 09:48:42;;;;;;;;;;;;;;;19.44;49.84;99117.03;1630042;88;20156;-86
2021/05/30 09:51:30;;;;;;;;;;;;;;;19.62;48.38;99116.37;1630089;88;20136;-85
2021/05/30 09:54:05;;;;;;;;;;;;;;;19.72;49.19;99103.98;1633093;86;20506;-86
2021/05/30 09:56:47;;;;;;;;;;;;;;;20.08;49.27;99106.55;1657580;86;20175;-84
2021/05/30 09:59:16;;;;;;;;;;;;;;;20.33;45.62;99106.63;1637322;86;20242;-85
2021/05/30 10:01:54;;;;;;;;;;;;;;;20.39;45.88;99106.25;1666234;86;20185;-86
2021/05/30 10:04:23;;;;;;;;;;;;;;;20.70;46.89;99100.28;1645295;85;20180;-85
2021/05/30 10:06:50;;;;;;;;;;;;;;;21.14;47.66;99103.02;1660110;85;20175;-86
2021/05/30 10:09:17;;;;;;;;;;;;;;;21.46;44.37;99099.98;1641347;87;20183;-85
2021/05/30 10:11:44;;;;;;;;;;;;;;;21.43;42.33;99102.37;1637661;87;20153;-85
2021/05/30 10:14:11;;;;;;;;;;;;;;;21.89;45.78;99100.92;1666957;85;20170;-85
2021/05/30 10:16:37;;;;;;;;;;;;;;;;;;1685101;85;20197;-85
2021/05/30 10:19:34;;;;;;;;;;;;;;;22.39;46.79;99092.44;1691101;85;20182;-85
2021/05/30 10:22:01;;;;;;;;;;;;;;;21.75;39.11;99095.29;1688635;84;20127;-84
2021/05/30 10:24:28;;;;;;;;;;;;;;;21.72;41.85;99092.01;1686101;85;20236;-85
2021/05/30 10:27:19;;;;;;;;;;;;;;;21.66;42.53;99106.52;1666850;85;20282;-85
2021/05/30 10:30:12;;;;;;;;;;;;;;;21.34;39.58;99096.84;1683482;84;20216;-86
2021/05/30 10:32:42;;;;;;;;;;;;;;;21.28;42.58;99095.95;1684084;84;20201;-85
2021/05/30 10:35:18;;;;;;;;;;;;;;;21.43;40.77;99097.57;1676691;85;20183;-86
2021/05/30 10:37:51;;;;;;;;;;;;;;;21.47;42.62;99096.40;1685010;85;20190;-85
2021/05/30 10:40:24;;;;;;;;;;;;;;;21.19;41.02;99092.99;1690589;84;20190;-86
2021/05/30 10:43:12;;;;;;;;;;;;;;;21.31;40.92;99104.52;1691641;85;20225;-86
2021/05/30 10:45:45;;;;;;;;;;;;;;;21.14;40.31;99104.34;1682566;84;20210;-85
2021/05/30 10:48:17;;;;;;;;;;;;;;;20.94;41.38;99106.19;1690866;85;20541;-85
2021/05/30 10:53:51;;;;;;;;;;;;;;;20.05;42.85;99106.25;1666993;86;20199;-84
2021/05/30 10:56:37;;;;;;;;;;;;;;;19.89;45.75;99110.33;1683796;84;20186;-84
2021/05/30 10:59:15;;;;;;;;;;;;;;;19.44;47.72;99115.72;1689955;84;20223;-84
2021/05/30 11:01:47;;;;;;;;;;;;;;;19.17;51.35;99114.28;1692484;84;20162;-84
2021/05/30 11:04:29;;;;;;;;;;;;;;;18.69;48.43;99123.64;1674165;85;20189;-84
2021/05/30 11:07:01;;;;;;;;;;;;;;;18.07;49.93;99115.75;1691417;85;20224;-84
2021/05/30 11:09:52;;;;;;;;;;;;;;;17.35;49.17;99127.95;1707115;84;20230;-84
2021/05/30 11:12:20;;;;;;;;;;;;;;;17.06;50.37;99119.34;1709486;84;20240;-85
2021/05/30 11:15:11;;;;;;;;;;;;;;;16.48;53.00;99129.64;1676061;84;20176;-84
2021/05/30 11:17:40;;;;;;;;;;;;;;;16.27;55.91;99136.80;1657660;85;20538;-82
2021/05/30 11:20:09;;;;;;;;;;;;;;;15.91;57.57;99154.61;1657629;84;20189;-82
2021/05/30 11:22:50;;;;;;;;;;;;;;;15.68;56.25;99152.18;1661146;84;20195;-81
2021/05/30 11:25:19;;;;;;;;;;;;;;;15.27;58.72;99162.23;1664765;86;20775;-82
2021/05/30 11:27:59;;;;;;;;;;;;;;;15.04;59.53;99155.82;1670522;86;20182;-82
2021/05/30 11:30:44;;;;;;;;;;;;;;;15.06;55.78;99147.45;1655384;85;20189;-82
2021/05/30 11:33:16;;;;;;;;;;;;;;;15.06;56.91;99152.25;1655233;86;20203;-81
2021/05/30 11:35:43;;;;;;;;;;;;;;;14.91;63.57;99163.36;1657536;84;20960;-81
2021/05/30 11:38:09;;;;;;;;;;;;;;;14.83;60.68;99153.66;1667765;86;20227;-81
2021/05/30 11:40:38;;;;;;;;;;;;;;;14.73;63.27;99149.73;1662729;84;20182;-81
2021/05/30 11:43:18;;;;;;;;;;;;;;;14.73;62.81;99136.65;1671250;86;20204;-82
2021/05/30 11:45:46;;;;;;;;;;;;;;;14.78;62.52;99126.39;1650756;84;20547;-81
2021/05/30 11:48:17;;;;;;;;;;;;;;;14.97;63.06;99129.53;1671454;86;20163;-83
2021/05/30 11:50:53;;;;;;;;;;;;;;;15.02;63.74;99120.57;1671232;86;20191;-83
2021/05/30 11:53:29;;;;;;;;;;;;;;;15.18;65.71;99110.28;1655760;85;20203;-82
2021/05/30 11:55:57;;;;;;;;;;;;;;;15.36;62.10;99116.48;1660247;84;20183;-81
2021/05/30 11:58:25;;;;;;;;;;;;;;;15.45;63.23;99119.98;1671385;86;20187;-81
2021/05/30 12:00:57;;;;;;;;;;;;;;;15.61;62.05;99122.76;1671056;86;20171;-83
2021/05/30 12:03:24;;;;;;;;;;;;;;;15.74;63.73;99127.03;1660706;86;20168;-83
2021/05/30 12:06:03;;;;;;;;;;;;;;;15.99;63.62;99122.80;1669371;86;20211;-84
2021/05/30 12:08:30;;;;;;;;;;;;;;;16.34;64.12;99128.16;1672545;86;20171;-84
2021/05/30 12:10:58;;;;;;;;;;;;;;;16.59;64.11;99129.57;1661772;86;20198;-84
2021/05/30 12:13:27;;;;;;;;;;;;;;;16.72;62.66;99134.61;1655652;84;20195;-83
2021/05/30 12:15:55;;;;;;;;;;;;;;;16.89;63.14;99135.09;1685165;85;20162;-85
2021/05/30 12:18:22;;;;;;;;;;;;;;;16.86;61.16;99136.11;1691680;85;20182;-85
2021/05/30 12:20:49;;;;;;;;;;;;;;;16.67;60.46;99136.60;1690401;85;20160;-85
2021/05/30 12:23:21;;;;;;;;;;;;;;;17.09;61.70;99136.27;1671146;85;20186;-85
2021/05/30 12:25:51;;;;;;;;;;;;;;;17.28;60.53;99136.16;1701721;84;20176;-85
2021/05/30 12:28:19;;;;;;;;;;;;;;;17.13;59.89;99146.61;1720102;84;20160;-84
2021/05/30 12:30:50;;;;;;;;;;;;;;;17.22;60.86;99148.77;1677405;84;20170;-85
2021/05/30 12:33:17;;;;;;;;;;;;;;;17.15;61.48;99148.69;1688164;85;20222;-83
2021/05/30 12:35:50;;;;;;;;;;;;;;;17.11;60.22;99150.65;1698253;84;20178;-83
2021/05/30 12:38:19;;;;;;;;;;;;;;;16.91;59.55;99154.28;1691724;85;20174;-85
2021/05/30 12:40:47;;;;;;;;;;;;;;;16.91;59.42;99154.28;1679133;84;20233;-86
2021/05/30 12:43:14;;;;;;;;;;;;;;;16.71;58.87;99153.90;1703521;84;20276;-84
2021/05/30 12:45:58;;;;;;;;;;;;;;;16.67;61.62;99149.29;1692162;84;20233;-84
2021/05/30 12:48:40;;;;;;;;;;;;;;;17.00;61.67;99150.33;1691254;85;20372;-84
2021/05/30 12:51:26;;;;;;;;;;;;;;;18.02;61.86;99144.08;1676718;84;20194;-84
2021/05/30 12:53:53;;;;;;;;;;;;;;;18.59;58.25;99154.07;1670410;85;20198;-84
2021/05/30 12:56:22;;;;;;;;;;;;;;;18.65;59.55;99167.36;1680596;85;20210;-84
2021/05/30 12:59:17;;;;;;;;;;;;;;;18.58;57.64;99175.22;1709203;84;20207;-85
2021/05/30 13:01:46;;;;;;;;;;;;;;;18.84;55.90;99179.02;1685171;84;20190;-84